Galva, Iowa
Current Conditions -  °F | °C
As of 1:35 PM on Friday 24 Oct 2014 (Local Time) from KSLB Reporting Station
Clear Clear  
Wind Chill: 68°   Ceiling: Unl
Heat Index: 68°   Visibility: 10mi
Dew Point: 54°   Wind: 10mph
Humidity: 60%   Direction: 260°W
Pressure: 29.9"   Gusts: NA
Location:  42.51°N, 95.42°W
Report Text: KSLB 241835Z AUTO 26009KT 10SM CLR 20/12 A2990 RMK AO2
Loading
Personal Weather Stations






























Interactive Weather Map
Tropical Storm Tracking
New forecast layout! Learn more

10-Day Weather Forecast

Advertisements
Track Severe Weather on mobile